createdAt,value
2022-10-10T00:00:27.356Z,10.46
2022-10-10T00:01:27.441Z,10.46
2022-10-10T00:02:27.334Z,10.46
2022-10-10T00:03:27.334Z,10.44
2022-10-10T00:04:27.313Z,10.43
2022-10-10T00:05:27.301Z,10.42
2022-10-10T00:06:32.506Z,10.42
2022-10-10T00:07:28.279Z,10.42
2022-10-10T00:08:27.286Z,10.39
2022-10-10T00:09:27.263Z,10.38
2022-10-10T00:10:27.223Z,10.36
2022-10-10T00:11:27.240Z,10.35
2022-10-10T00:12:27.200Z,10.35
2022-10-10T00:13:27.213Z,10.34
2022-10-10T00:14:31.577Z,10.35
2022-10-10T00:15:28.175Z,10.36
2022-10-10T00:16:27.163Z,10.36
2022-10-10T00:17:27.136Z,10.38
2022-10-10T00:18:27.139Z,10.38
2022-10-10T00:19:27.108Z,10.36
2022-10-10T00:20:27.116Z,10.35
2022-10-10T00:21:27.103Z,10.36
2022-10-10T00:22:27.068Z,10.35
2022-10-10T00:23:27.080Z,10.34
2022-10-10T00:24:27.067Z,10.36
2022-10-10T00:25:27.052Z,10.36
2022-10-10T00:26:27.041Z,10.35
2022-10-10T00:27:27.016Z,10.35
2022-10-10T00:28:27.041Z,10.31
2022-10-10T00:29:27.007Z,10.28
2022-10-10T00:30:26.976Z,10.28
2022-10-10T00:31:26.982Z,10.29
2022-10-10T00:32:26.950Z,10.28
2022-10-10T00:33:26.943Z,10.28
2022-10-10T00:34:26.914Z,10.26
2022-10-10T00:35:26.967Z,10.25
2022-10-10T00:36:26.920Z,10.24
2022-10-10T00:37:26.907Z,10.20
2022-10-10T00:38:26.862Z,10.17
2022-10-10T00:39:26.868Z,10.17
2022-10-10T00:40:26.854Z,10.18
2022-10-10T00:41:26.825Z,10.20
2022-10-10T00:42:26.835Z,10.24
2022-10-10T00:43:26.817Z,10.22
2022-10-10T00:44:26.889Z,10.22
2022-10-10T00:45:26.808Z,10.22
2022-10-10T00:46:26.778Z,10.20
2022-10-10T00:47:26.748Z,10.18
2022-10-10T00:48:26.765Z,10.17
2022-10-10T00:49:26.726Z,10.17
2022-10-10T00:50:26.715Z,10.17
2022-10-10T00:51:26.696Z,10.16
2022-10-10T00:52:26.701Z,10.11
2022-10-10T00:53:26.684Z,10.10
2022-10-10T00:54:26.676Z,10.10
2022-10-10T00:55:26.666Z,10.11
2022-10-10T00:56:26.623Z,10.10
2022-10-10T00:57:26.615Z,10.09
2022-10-10T00:58:26.616Z,10.09
2022-10-10T00:59:26.612Z,10.07
2022-10-10T01:00:26.572Z,10.07
2022-10-10T01:01:26.620Z,10.09
2022-10-10T01:02:26.564Z,10.09
2022-10-10T01:03:26.533Z,10.09
2022-10-10T01:04:26.544Z,10.09
2022-10-10T01:05:26.511Z,10.07
2022-10-10T01:06:26.503Z,10.09
2022-10-10T01:07:26.495Z,10.06
2022-10-10T01:08:26.484Z,10.06
2022-10-10T01:09:26.474Z,10.04
2022-10-10T01:10:26.440Z,10.02
2022-10-10T01:11:26.443Z,10.01
2022-10-10T01:12:26.445Z,10.02
2022-10-10T01:13:26.416Z,10.02
2022-10-10T01:14:26.393Z,10.04
2022-10-10T01:15:26.398Z,10.02
2022-10-10T01:16:26.374Z,10.04
2022-10-10T01:17:26.374Z,10.01
2022-10-10T01:18:26.339Z,10.04
2022-10-10T01:19:26.345Z,10.02
2022-10-10T01:20:26.311Z,10.04
2022-10-10T01:21:26.329Z,10.04
2022-10-10T01:22:26.301Z,10.06
2022-10-10T01:23:26.280Z,10.04
2022-10-10T01:24:26.270Z,10.02
2022-10-10T01:25:26.261Z,9.99
2022-10-10T01:26:26.271Z,9.99
2022-10-10T01:27:30.392Z,9.98
2022-10-10T01:28:27.241Z,9.98
2022-10-10T01:29:26.197Z,9.95
2022-10-10T01:30:26.190Z,9.95
2022-10-10T01:31:26.186Z,9.95
2022-10-10T01:32:26.175Z,9.93
2022-10-10T01:33:26.160Z,9.92
2022-10-10T01:34:26.143Z,9.89
2022-10-10T01:35:26.119Z,9.88
2022-10-10T01:36:26.099Z,9.86
2022-10-10T01:37:26.106Z,9.88
2022-10-10T01:38:26.092Z,9.86
2022-10-10T01:39:26.090Z,9.85
2022-10-10T01:40:26.059Z,9.85
2022-10-10T01:41:26.060Z,9.83
2022-10-10T01:42:26.038Z,9.83
2022-10-10T01:43:26.027Z,9.83
2022-10-10T01:44:26.010Z,9.83
2022-10-10T01:45:25.987Z,9.85
2022-10-10T01:46:26.031Z,9.85
2022-10-10T01:47:25.966Z,9.85
2022-10-10T01:48:25.979Z,9.85
2022-10-10T01:49:25.948Z,9.81
2022-10-10T01:50:25.916Z,9.83
2022-10-10T01:51:25.913Z,9.85
2022-10-10T01:52:25.908Z,9.80
2022-10-10T01:53:25.918Z,9.83
2022-10-10T01:54:25.878Z,9.83
2022-10-10T01:55:25.877Z,9.81
2022-10-10T01:56:25.855Z,9.81
2022-10-10T01:57:25.834Z,9.83
2022-10-10T01:58:25.855Z,9.83
2022-10-10T01:59:25.817Z,9.86
2022-10-10T02:00:25.812Z,9.88
2022-10-10T02:01:25.796Z,9.91
2022-10-10T02:02:25.786Z,9.91
2022-10-10T02:03:25.772Z,9.91
2022-10-10T02:04:25.770Z,9.92
2022-10-10T02:05:25.755Z,9.95
2022-10-10T02:06:25.726Z,9.93
2022-10-10T02:07:25.803Z,9.92
2022-10-10T02:08:25.698Z,9.91
2022-10-10T02:09:25.691Z,9.89
2022-10-10T02:10:25.666Z,9.89
2022-10-10T02:11:25.655Z,9.86
2022-10-10T02:12:25.644Z,9.86
2022-10-10T02:13:25.634Z,9.86
2022-10-10T02:14:25.646Z,9.85
2022-10-10T02:15:25.604Z,9.86
2022-10-10T02:16:25.592Z,9.86
2022-10-10T02:17:25.576Z,9.86
2022-10-10T02:18:25.574Z,9.88
2022-10-10T02:19:25.556Z,9.89
2022-10-10T02:20:25.540Z,9.89
2022-10-10T02:21:25.517Z,9.89
2022-10-10T02:22:25.512Z,9.89
2022-10-10T02:23:25.505Z,9.89
2022-10-10T02:24:25.496Z,9.88
2022-10-10T02:25:25.469Z,9.89
2022-10-10T02:26:25.463Z,9.88
2022-10-10T02:27:25.442Z,9.88
2022-10-10T02:28:25.463Z,9.86
2022-10-10T02:29:25.431Z,9.86
2022-10-10T02:30:25.411Z,9.88
2022-10-10T02:31:25.378Z,9.88
2022-10-10T02:32:25.383Z,9.89
2022-10-10T02:33:25.371Z,9.89
2022-10-10T02:34:25.350Z,9.91
2022-10-10T02:35:25.359Z,9.88
2022-10-10T02:36:25.330Z,9.89
2022-10-10T02:37:25.337Z,9.86
2022-10-10T02:38:25.298Z,9.86
2022-10-10T02:39:25.290Z,9.88
2022-10-10T02:40:25.289Z,9.88
2022-10-10T02:41:25.270Z,9.85
2022-10-10T02:42:25.259Z,9.83
2022-10-10T02:43:25.240Z,9.85
2022-10-10T02:44:25.231Z,9.86
2022-10-10T02:45:25.206Z,9.85
2022-10-10T02:46:25.199Z,9.85
2022-10-10T02:47:25.193Z,9.83
2022-10-10T02:48:25.165Z,9.83
2022-10-10T02:49:25.159Z,9.81
2022-10-10T02:50:25.181Z,9.78
2022-10-10T02:51:28.582Z,9.78
2022-10-10T02:52:26.131Z,9.77
2022-10-10T02:53:25.102Z,9.77
2022-10-10T02:54:25.103Z,9.77
2022-10-10T02:55:25.087Z,9.75
2022-10-10T02:56:25.065Z,9.74
2022-10-10T02:57:25.044Z,9.75
2022-10-10T02:58:25.046Z,9.77
2022-10-10T02:59:25.048Z,9.75
2022-10-10T03:00:25.017Z,9.74
2022-10-10T03:01:25.043Z,9.75
2022-10-10T03:02:24.997Z,9.75
2022-10-10T03:03:24.976Z,9.77
2022-10-10T03:04:24.954Z,9.75
2022-10-10T03:05:24.934Z,9.74
2022-10-10T03:06:24.956Z,9.74
2022-10-10T03:07:24.930Z,9.73
2022-10-10T03:08:24.901Z,9.71
2022-10-10T03:09:24.898Z,9.71
2022-10-10T03:10:24.892Z,9.73
2022-10-10T03:11:24.887Z,9.73
2022-10-10T03:12:24.856Z,9.73
2022-10-10T03:13:24.844Z,9.73
2022-10-10T03:14:24.836Z,9.73
2022-10-10T03:15:24.822Z,9.75
2022-10-10T03:16:24.806Z,9.75
2022-10-10T03:17:24.802Z,9.75
2022-10-10T03:18:24.774Z,9.74
2022-10-10T03:19:24.766Z,9.74
2022-10-10T03:20:24.741Z,9.75
2022-10-10T03:21:24.735Z,9.74
2022-10-10T03:22:24.743Z,9.77
2022-10-10T03:23:24.703Z,9.75
2022-10-10T03:24:24.714Z,9.74
2022-10-10T03:25:24.680Z,9.73
2022-10-10T03:26:24.673Z,9.71
2022-10-10T03:27:24.650Z,9.70
2022-10-10T03:28:24.708Z,9.71
2022-10-10T03:29:24.634Z,9.68
2022-10-10T03:30:24.632Z,9.68
2022-10-10T03:31:24.613Z,9.67
2022-10-10T03:32:24.612Z,9.63
2022-10-10T03:33:24.558Z,9.63
2022-10-10T03:34:24.555Z,9.60
2022-10-10T03:35:24.554Z,9.60
2022-10-10T03:36:24.540Z,9.59
2022-10-10T03:37:24.526Z,9.59
2022-10-10T03:38:24.520Z,9.59
2022-10-10T03:39:24.501Z,9.59
2022-10-10T03:40:24.477Z,9.58
2022-10-10T03:41:24.460Z,9.59
2022-10-10T03:42:24.499Z,9.60
2022-10-10T03:43:24.450Z,9.59
2022-10-10T03:44:24.431Z,9.59
2022-10-10T03:45:24.414Z,9.59
2022-10-10T03:46:24.397Z,9.59
2022-10-10T03:47:24.394Z,9.60
2022-10-10T03:48:24.386Z,9.59
2022-10-10T03:49:24.354Z,9.59
2022-10-10T03:50:24.360Z,9.59
2022-10-10T03:51:24.358Z,9.60
2022-10-10T03:52:24.340Z,9.60
2022-10-10T03:53:24.319Z,9.59
2022-10-10T03:54:24.329Z,9.58
2022-10-10T03:55:24.277Z,9.58
2022-10-10T03:56:24.270Z,9.58
2022-10-10T03:57:24.267Z,9.58
2022-10-10T03:58:24.262Z,9.59
2022-10-10T03:59:24.249Z,9.60
2022-10-10T04:00:24.245Z,9.62
2022-10-10T04:01:24.260Z,9.63
2022-10-10T04:02:24.201Z,9.63
2022-10-10T04:03:24.186Z,9.65
2022-10-10T04:04:24.197Z,9.63
2022-10-10T04:05:24.167Z,9.63
2022-10-10T04:06:24.160Z,9.65
2022-10-10T04:07:24.128Z,9.62
2022-10-10T04:08:24.112Z,9.65
2022-10-10T04:09:24.103Z,9.65
2022-10-10T04:10:24.084Z,9.63
2022-10-10T04:11:24.065Z,9.67
2022-10-10T04:12:24.057Z,9.67
2022-10-10T04:13:24.056Z,9.67
2022-10-10T04:14:24.055Z,9.68
2022-10-10T04:15:24.013Z,9.67
2022-10-10T04:16:24.022Z,9.67
2022-10-10T04:17:23.993Z,9.67
2022-10-10T04:18:23.995Z,9.65
2022-10-10T04:19:23.986Z,9.65
2022-10-10T04:20:23.956Z,9.65
2022-10-10T04:21:23.935Z,9.67
2022-10-10T04:22:23.921Z,9.68
2022-10-10T04:23:23.902Z,9.68
2022-10-10T04:24:23.901Z,9.67
2022-10-10T04:25:23.916Z,9.65
2022-10-10T04:26:23.878Z,9.67
2022-10-10T04:27:23.871Z,9.67
2022-10-10T04:28:23.881Z,9.71
2022-10-10T04:29:23.844Z,9.68
2022-10-10T04:30:23.820Z,9.71
2022-10-10T04:31:23.819Z,9.73
2022-10-10T04:32:23.810Z,9.73
2022-10-10T04:33:23.794Z,9.71
2022-10-10T04:34:23.762Z,9.73
2022-10-10T04:35:23.749Z,9.73
2022-10-10T04:36:23.772Z,9.73
2022-10-10T04:37:23.734Z,9.73
2022-10-10T04:38:23.719Z,9.73
2022-10-10T04:39:23.711Z,9.73
2022-10-10T04:40:26.686Z,9.71
2022-10-10T04:41:23.690Z,9.71
2022-10-10T04:42:23.650Z,9.74
2022-10-10T04:43:23.638Z,9.74
2022-10-10T04:44:23.645Z,9.74
2022-10-10T04:45:23.609Z,9.74
2022-10-10T04:46:23.631Z,9.74
2022-10-10T04:47:23.580Z,9.74
2022-10-10T04:48:31.164Z,9.73
2022-10-10T04:49:23.555Z,9.74
2022-10-10T04:50:23.566Z,9.74
2022-10-10T04:51:24.322Z,9.73
2022-10-10T04:52:23.535Z,9.73
2022-10-10T04:53:23.536Z,9.70
2022-10-10T04:54:23.528Z,9.71
2022-10-10T04:55:23.532Z,9.70
2022-10-10T04:56:23.526Z,9.70
2022-10-10T04:57:23.473Z,9.70
2022-10-10T04:58:23.454Z,9.70
2022-10-10T04:59:23.442Z,9.68
2022-10-10T05:00:23.424Z,9.67
2022-10-10T05:01:23.473Z,9.67
2022-10-10T05:02:23.435Z,9.67
2022-10-10T05:03:23.392Z,9.67
2022-10-10T05:04:23.370Z,9.68
2022-10-10T05:05:23.400Z,9.67
2022-10-10T05:06:23.387Z,9.65
2022-10-10T05:07:23.330Z,9.67
2022-10-10T05:08:23.357Z,9.65
2022-10-10T05:09:23.311Z,9.65
2022-10-10T05:10:23.314Z,9.63
2022-10-10T05:11:23.295Z,9.63
2022-10-10T05:12:23.278Z,9.60
2022-10-10T05:13:23.297Z,9.59
2022-10-10T05:14:23.256Z,9.60
2022-10-10T05:15:23.245Z,9.62
2022-10-10T05:16:23.240Z,9.60
2022-10-10T05:17:23.223Z,9.59
2022-10-10T05:18:23.204Z,9.58
2022-10-10T05:19:23.193Z,9.56
2022-10-10T05:20:23.188Z,9.53
2022-10-10T05:21:23.166Z,9.53
2022-10-10T05:22:23.170Z,9.50
2022-10-10T05:23:23.119Z,9.52
2022-10-10T05:24:23.182Z,9.53
2022-10-10T05:25:23.102Z,9.55
2022-10-10T05:26:23.107Z,9.55
2022-10-10T05:27:23.083Z,9.56
2022-10-10T05:28:23.167Z,9.55
2022-10-10T05:29:23.058Z,9.53
2022-10-10T05:30:23.041Z,9.55
2022-10-10T05:31:23.041Z,9.56
2022-10-10T05:32:22.998Z,9.58
2022-10-10T05:33:23.012Z,9.56
2022-10-10T05:34:23.017Z,9.58
2022-10-10T05:35:22.957Z,9.59
2022-10-10T05:36:22.973Z,9.58
2022-10-10T05:37:22.960Z,9.58
2022-10-10T05:38:22.927Z,9.58
2022-10-10T05:39:22.933Z,9.58
2022-10-10T05:40:22.970Z,9.58
2022-10-10T05:41:22.890Z,9.58
2022-10-10T05:42:22.887Z,9.58
2022-10-10T05:43:22.867Z,9.56
2022-10-10T05:44:22.846Z,9.56
2022-10-10T05:45:22.877Z,9.56
2022-10-10T05:46:23.097Z,9.56
2022-10-10T05:47:27.452Z,9.58
2022-10-10T05:48:23.830Z,9.58
2022-10-10T05:49:22.784Z,9.58
2022-10-10T05:50:22.801Z,9.58
2022-10-10T05:51:22.747Z,9.55
2022-10-10T05:52:22.765Z,9.53
2022-10-10T05:53:22.725Z,9.53
2022-10-10T05:54:22.765Z,9.53
2022-10-10T05:55:22.696Z,9.53
2022-10-10T05:56:22.716Z,9.53
2022-10-10T05:57:22.685Z,9.53
2022-10-10T05:58:22.663Z,9.53
2022-10-10T05:59:22.679Z,9.53
2022-10-10T06:00:22.651Z,9.55
2022-10-10T06:01:22.701Z,9.52
2022-10-10T06:02:22.677Z,9.55
2022-10-10T06:03:22.603Z,9.53
2022-10-10T06:04:22.604Z,9.52
2022-10-10T06:05:22.591Z,9.53
2022-10-10T06:06:22.599Z,9.53
2022-10-10T06:07:22.569Z,9.53
2022-10-10T06:08:22.546Z,9.55
2022-10-10T06:09:22.536Z,9.56
2022-10-10T06:10:22.539Z,9.58
2022-10-10T06:11:22.524Z,9.58
2022-10-10T06:12:22.503Z,9.58
2022-10-10T06:13:24.460Z,9.59
2022-10-10T06:14:22.497Z,9.59
2022-10-10T06:15:22.476Z,9.62
2022-10-10T06:16:22.421Z,9.60
2022-10-10T06:17:22.478Z,9.60
2022-10-10T06:18:22.474Z,9.62
2022-10-10T06:19:22.403Z,9.62
2022-10-10T06:20:22.369Z,9.60
2022-10-10T06:21:22.370Z,9.60
2022-10-10T06:22:22.357Z,9.60
2022-10-10T06:23:22.353Z,9.60
2022-10-10T06:24:22.365Z,9.62
2022-10-10T06:25:39.530Z,9.63
2022-10-10T06:26:23.338Z,9.63
2022-10-10T06:27:22.345Z,9.62
2022-10-10T06:28:22.335Z,9.62
2022-10-10T06:29:22.262Z,9.60
2022-10-10T06:30:22.275Z,9.62
2022-10-10T06:31:22.230Z,9.65
2022-10-10T06:32:22.229Z,9.65
2022-10-10T06:33:22.244Z,9.68
2022-10-10T06:34:22.205Z,9.68
2022-10-10T06:35:22.188Z,9.70
2022-10-10T06:36:22.173Z,9.73
2022-10-10T06:37:22.196Z,9.74
2022-10-10T06:38:22.151Z,9.77
2022-10-10T06:39:22.119Z,9.78
2022-10-10T06:40:22.131Z,9.81
2022-10-10T06:41:22.099Z,9.83
2022-10-10T06:42:22.077Z,9.83
2022-10-10T06:43:22.141Z,9.85
2022-10-10T06:44:22.060Z,9.86
2022-10-10T06:45:22.070Z,9.88
2022-10-10T06:46:22.034Z,9.89
2022-10-10T06:47:22.037Z,9.92
2022-10-10T06:48:22.300Z,9.93
2022-10-10T06:49:21.994Z,9.95
2022-10-10T06:50:21.998Z,9.95
2022-10-10T06:51:21.977Z,9.98
2022-10-10T06:52:21.966Z,9.99
2022-10-10T06:53:21.962Z,10.02
2022-10-10T06:54:21.924Z,10.02
2022-10-10T06:55:21.945Z,10.04
2022-10-10T06:56:27.197Z,10.06
2022-10-10T06:57:22.892Z,10.07
2022-10-10T06:58:21.919Z,10.10
2022-10-10T06:59:21.925Z,10.13
2022-10-10T07:00:21.896Z,10.16
2022-10-10T07:01:21.869Z,10.20
2022-10-10T07:02:21.906Z,10.24
2022-10-10T07:03:21.848Z,10.26
2022-10-10T07:04:21.814Z,10.29
2022-10-10T07:05:21.798Z,10.34
2022-10-10T07:06:21.776Z,10.36
2022-10-10T07:07:21.790Z,10.42
2022-10-10T07:08:21.756Z,10.46
2022-10-10T07:09:21.747Z,10.52
2022-10-10T07:10:21.714Z,10.54
2022-10-10T07:11:21.722Z,10.60
2022-10-10T07:12:21.706Z,10.62
2022-10-10T07:13:21.716Z,10.66
2022-10-10T07:14:21.688Z,10.70
2022-10-10T07:15:21.661Z,10.73
2022-10-10T07:16:21.672Z,10.76
2022-10-10T07:17:21.652Z,10.80
2022-10-10T07:18:21.628Z,10.84
2022-10-10T07:19:21.591Z,10.88
2022-10-10T07:20:21.611Z,10.91
2022-10-10T07:21:21.575Z,10.94
2022-10-10T07:22:21.551Z,10.98
2022-10-10T07:23:21.553Z,11.01
2022-10-10T07:24:21.530Z,11.02
2022-10-10T07:25:21.554Z,11.05
2022-10-10T07:26:21.527Z,11.09
2022-10-10T07:27:21.504Z,11.11
2022-10-10T07:28:21.472Z,11.13
2022-10-10T07:29:21.505Z,11.16
2022-10-10T07:30:22.337Z,11.19
2022-10-10T07:31:21.481Z,11.23
2022-10-10T07:32:21.459Z,11.24
2022-10-10T07:33:22.351Z,11.27
2022-10-10T07:34:21.402Z,11.31
2022-10-10T07:35:21.421Z,11.31
2022-10-10T07:36:21.379Z,11.41
2022-10-10T07:37:21.415Z,11.46
2022-10-10T07:38:21.393Z,11.48
2022-10-10T07:39:21.340Z,11.54
2022-10-10T07:40:21.394Z,11.57
2022-10-10T07:41:21.332Z,11.59
2022-10-10T07:42:21.308Z,11.62
2022-10-10T07:43:21.303Z,11.64
2022-10-10T07:44:21.272Z,11.69
2022-10-10T07:45:21.280Z,11.72
2022-10-10T07:46:21.258Z,11.77
2022-10-10T07:47:21.256Z,11.78
2022-10-10T07:48:21.238Z,11.79
2022-10-10T07:49:21.210Z,11.82
2022-10-10T07:50:21.179Z,11.84
2022-10-10T07:51:21.211Z,11.85
2022-10-10T07:52:21.159Z,11.85
2022-10-10T07:53:21.146Z,11.87
2022-10-10T07:54:21.189Z,11.88
2022-10-10T07:55:21.129Z,11.90
2022-10-10T07:56:21.224Z,11.94
2022-10-10T07:57:21.138Z,11.96
2022-10-10T07:58:21.076Z,11.97
2022-10-10T07:59:21.109Z,11.97
2022-10-10T08:00:21.086Z,11.98
2022-10-10T08:01:21.117Z,12.01
2022-10-10T08:02:21.068Z,12.01
2022-10-10T08:03:21.027Z,12.04
2022-10-10T08:04:20.994Z,12.04
2022-10-10T08:05:21.007Z,12.05
2022-10-10T08:06:21.010Z,12.08
2022-10-10T08:07:20.986Z,12.11
2022-10-10T08:08:20.998Z,12.12
2022-10-10T08:09:20.955Z,12.13
2022-10-10T08:10:20.955Z,12.15
2022-10-10T08:11:20.927Z,12.16
2022-10-10T08:12:20.893Z,12.18
2022-10-10T08:13:20.919Z,12.19
2022-10-10T08:14:20.878Z,12.21
2022-10-10T08:15:20.888Z,12.23
2022-10-10T08:16:20.872Z,12.25
2022-10-10T08:17:20.842Z,12.25
2022-10-10T08:18:20.836Z,12.26
2022-10-10T08:19:20.838Z,12.29
2022-10-10T08:20:20.813Z,12.29
2022-10-10T08:21:20.795Z,12.26
2022-10-10T08:22:20.784Z,12.25
2022-10-10T08:23:23.205Z,12.22
2022-10-10T08:24:20.765Z,12.22
2022-10-10T08:25:20.744Z,12.23
2022-10-10T08:26:20.720Z,12.23
2022-10-10T08:27:20.721Z,12.22
2022-10-10T08:28:21.787Z,12.23
2022-10-10T08:29:20.693Z,12.23
2022-10-10T08:30:20.673Z,12.22
2022-10-10T08:31:20.673Z,12.23
2022-10-10T08:32:20.667Z,12.23
2022-10-10T08:33:20.649Z,12.26
2022-10-10T08:34:20.648Z,12.25
2022-10-10T08:35:20.599Z,12.25
2022-10-10T08:36:20.591Z,12.26
2022-10-10T08:37:20.611Z,12.25
2022-10-10T08:38:20.591Z,12.25
2022-10-10T08:39:20.582Z,12.26
2022-10-10T08:40:20.545Z,12.26
2022-10-10T08:41:20.588Z,12.26
2022-10-10T08:42:20.510Z,12.26
2022-10-10T08:43:20.504Z,12.29
2022-10-10T08:44:20.528Z,12.30
2022-10-10T08:45:20.489Z,12.33
2022-10-10T08:46:20.466Z,12.33
2022-10-10T08:47:20.456Z,12.36
2022-10-10T08:48:20.441Z,12.40
2022-10-10T08:49:20.448Z,12.46
2022-10-10T08:50:20.409Z,12.51
2022-10-10T08:51:20.389Z,12.54
2022-10-10T08:52:20.368Z,12.56
2022-10-10T08:53:20.397Z,12.62
2022-10-10T08:54:20.375Z,12.66
2022-10-10T08:55:20.349Z,12.70
2022-10-10T08:56:20.320Z,12.77
2022-10-10T08:57:20.373Z,12.85
2022-10-10T08:58:20.313Z,12.91
2022-10-10T08:59:20.315Z,12.94
2022-10-10T09:00:20.334Z,12.99
2022-10-10T09:01:21.865Z,13.04
2022-10-10T09:02:26.060Z,13.07
2022-10-10T09:03:21.237Z,13.09
2022-10-10T09:04:20.222Z,13.13
2022-10-10T09:05:20.215Z,13.14
2022-10-10T09:06:20.239Z,13.16
2022-10-10T09:07:20.202Z,13.24
2022-10-10T09:08:23.271Z,13.28
2022-10-10T09:09:21.189Z,13.32
2022-10-10T09:10:20.155Z,13.41
2022-10-10T09:11:20.199Z,13.44
2022-10-10T09:12:20.130Z,13.47
2022-10-10T09:13:20.102Z,13.51
2022-10-10T09:14:20.105Z,13.54
2022-10-10T09:15:20.121Z,13.59
2022-10-10T09:16:20.075Z,13.63
2022-10-10T09:17:20.071Z,13.65
2022-10-10T09:18:20.034Z,13.72
2022-10-10T09:19:20.024Z,13.76
2022-10-10T09:20:20.279Z,13.80
2022-10-10T09:21:19.994Z,13.84
2022-10-10T09:22:20.824Z,13.91
2022-10-10T09:23:19.981Z,13.96
2022-10-10T09:24:19.963Z,13.99
2022-10-10T09:25:19.986Z,14.02
2022-10-10T09:26:19.961Z,14.06
2022-10-10T09:27:19.936Z,14.09
2022-10-10T09:28:20.004Z,14.11
2022-10-10T09:29:19.935Z,14.12
2022-10-10T09:30:19.923Z,14.13
2022-10-10T09:31:19.890Z,14.21
2022-10-10T09:32:19.863Z,14.23
2022-10-10T09:33:19.876Z,14.27
2022-10-10T09:34:19.851Z,14.29
2022-10-10T09:35:19.835Z,14.34
2022-10-10T09:36:19.841Z,14.41
2022-10-10T09:37:35.536Z,14.46
2022-10-10T09:38:20.787Z,14.49
2022-10-10T09:39:19.798Z,14.53
2022-10-10T09:40:19.770Z,14.57
2022-10-10T09:41:19.774Z,14.59
2022-10-10T09:42:19.734Z,14.61
2022-10-10T09:43:19.719Z,14.67
2022-10-10T09:44:19.716Z,14.69
2022-10-10T09:45:19.706Z,14.72
2022-10-10T09:46:19.690Z,14.74
2022-10-10T09:47:19.694Z,14.78
2022-10-10T09:48:19.653Z,14.79
2022-10-10T09:49:19.639Z,14.82
2022-10-10T09:50:19.631Z,14.85
2022-10-10T09:51:19.615Z,14.85
2022-10-10T09:52:19.643Z,14.87
2022-10-10T09:53:19.578Z,14.90
2022-10-10T09:54:19.598Z,14.95
2022-10-10T09:55:19.567Z,15.00
2022-10-10T09:56:19.554Z,15.03
2022-10-10T09:57:19.543Z,15.07
2022-10-10T09:58:19.511Z,15.11
2022-10-10T09:59:19.502Z,15.18
2022-10-10T10:00:19.504Z,15.23
2022-10-10T10:01:19.501Z,15.30
2022-10-10T10:02:27.792Z,15.34
2022-10-10T10:03:19.454Z,15.40
2022-10-10T10:04:28.993Z,15.41
2022-10-10T10:05:20.462Z,15.48
2022-10-10T10:06:19.414Z,15.52
2022-10-10T10:07:19.422Z,15.55
2022-10-10T10:08:19.406Z,15.56
2022-10-10T10:09:19.382Z,15.58
2022-10-10T10:10:19.380Z,15.56
2022-10-10T10:11:19.372Z,15.56
2022-10-10T10:12:19.319Z,15.58
2022-10-10T10:13:19.351Z,15.58
2022-10-10T10:14:19.298Z,15.55
2022-10-10T10:15:19.288Z,15.53
2022-10-10T10:16:19.302Z,15.53
2022-10-10T10:17:19.275Z,15.52
2022-10-10T10:18:19.280Z,15.52
2022-10-10T10:19:19.258Z,15.49
2022-10-10T10:20:19.247Z,15.51
2022-10-10T10:21:19.232Z,15.51
2022-10-10T10:22:22.217Z,15.52
2022-10-10T10:23:20.227Z,15.53
2022-10-10T10:24:19.191Z,15.51
2022-10-10T10:25:19.170Z,15.52
2022-10-10T10:26:19.172Z,15.52
2022-10-10T10:27:19.208Z,15.53
2022-10-10T10:28:19.189Z,15.56
2022-10-10T10:29:19.119Z,15.56
2022-10-10T10:30:19.122Z,15.58
2022-10-10T10:31:19.125Z,15.59
2022-10-10T10:32:19.078Z,15.59
2022-10-10T10:33:19.068Z,15.60
2022-10-10T10:34:19.072Z,15.64
2022-10-10T10:35:19.041Z,15.70
2022-10-10T10:36:19.049Z,15.76
2022-10-10T10:37:19.050Z,15.76
2022-10-10T10:38:18.987Z,15.80
2022-10-10T10:39:18.998Z,15.81
2022-10-10T10:40:19.000Z,15.86
2022-10-10T10:41:18.972Z,15.88
2022-10-10T10:42:18.949Z,15.92
2022-10-10T10:43:18.941Z,15.96
2022-10-10T10:44:18.942Z,16.03
2022-10-10T10:45:19.039Z,16.06
2022-10-10T10:46:18.875Z,16.11
2022-10-10T10:47:18.879Z,16.16
2022-10-10T10:48:18.883Z,16.18
2022-10-10T10:49:20.699Z,16.27
2022-10-10T10:50:18.847Z,16.33
2022-10-10T10:51:18.885Z,16.41
2022-10-10T10:52:18.832Z,16.44
2022-10-10T10:53:18.806Z,16.47
2022-10-10T10:54:18.794Z,16.47
2022-10-10T10:55:18.786Z,16.50
2022-10-10T10:56:18.810Z,16.51
2022-10-10T10:57:32.143Z,16.48
2022-10-10T10:59:01.056Z,16.50
2022-10-10T10:59:41.840Z,16.52
2022-10-10T11:01:19.825Z,16.54
2022-10-10T11:01:38.691Z,16.54
2022-10-10T11:02:37.052Z,16.57
2022-10-10T11:05:16.594Z,16.59
2022-10-10T11:05:20.452Z,16.62
2022-10-10T11:05:28.989Z,16.60
2022-10-10T11:06:19.832Z,16.62
2022-10-10T11:07:20.405Z,16.62
2022-10-10T11:08:18.604Z,16.63
2022-10-10T11:09:44.917Z,16.63
2022-10-10T11:10:19.658Z,16.63
2022-10-10T11:11:18.582Z,16.65
2022-10-10T11:12:18.558Z,16.63
2022-10-10T11:13:18.552Z,16.65
2022-10-10T11:14:18.560Z,16.65
2022-10-10T11:15:18.545Z,16.67
2022-10-10T11:16:43.539Z,16.70
2022-10-10T11:17:19.506Z,16.72
2022-10-10T11:18:18.503Z,16.73
2022-10-10T11:19:18.452Z,16.77
2022-10-10T11:20:18.461Z,16.78
2022-10-10T11:21:18.449Z,16.81
2022-10-10T11:22:18.425Z,16.82
2022-10-10T11:23:18.401Z,16.84
2022-10-10T11:24:18.393Z,16.87
2022-10-10T11:25:18.404Z,16.90
2022-10-10T11:26:18.370Z,16.96
2022-10-10T11:27:18.339Z,16.99
2022-10-10T11:28:18.398Z,16.99
2022-10-10T11:29:18.330Z,17.00
2022-10-10T11:30:18.352Z,17.02
2022-10-10T11:31:18.305Z,17.02
2022-10-10T11:33:18.310Z,17.02
2022-10-10T11:34:18.289Z,17.02
2022-10-10T11:35:18.262Z,17.06
2022-10-10T11:36:18.262Z,17.06
2022-10-10T11:37:18.220Z,17.09
2022-10-10T11:38:18.233Z,17.09
2022-10-10T11:39:18.203Z,17.10
2022-10-10T11:40:18.214Z,17.14
2022-10-10T11:41:18.199Z,17.15
2022-10-10T11:42:18.187Z,17.20
2022-10-10T11:43:18.191Z,17.21
2022-10-10T11:44:18.144Z,17.24
2022-10-10T11:45:18.248Z,17.24
2022-10-10T11:46:18.228Z,17.22
2022-10-10T11:47:18.478Z,17.22
2022-10-10T11:48:18.222Z,17.22
2022-10-10T11:49:18.275Z,17.18
2022-10-10T11:50:18.121Z,17.18
2022-10-10T11:51:29.159Z,17.17
2022-10-10T11:52:33.510Z,17.22
2022-10-10T11:53:19.301Z,17.25
2022-10-10T11:54:26.625Z,17.24
2022-10-10T11:55:29.857Z,17.25
2022-10-10T11:56:25.648Z,17.27
2022-10-10T11:57:17.953Z,17.32
2022-10-10T11:58:17.957Z,17.36
2022-10-10T11:59:17.936Z,17.38
2022-10-10T12:00:18.263Z,17.38
2022-10-10T12:01:17.997Z,17.40
2022-10-10T12:02:17.904Z,17.43
2022-10-10T12:03:17.911Z,17.42
2022-10-10T12:04:17.905Z,17.42
2022-10-10T12:05:17.935Z,17.45
2022-10-10T12:06:17.851Z,17.45
2022-10-10T12:07:17.886Z,17.45
2022-10-10T12:08:18.338Z,17.43
2022-10-10T12:09:17.797Z,17.43
2022-10-10T12:10:17.781Z,17.40
2022-10-10T12:11:17.806Z,17.40
2022-10-10T12:12:17.810Z,17.40
2022-10-10T12:13:17.806Z,17.40
2022-10-10T12:14:17.893Z,17.38
2022-10-10T12:15:17.764Z,17.36
2022-10-10T12:16:17.801Z,17.35
2022-10-10T12:17:17.848Z,17.33
2022-10-10T12:18:17.677Z,17.36
2022-10-10T12:19:17.727Z,17.39
2022-10-10T12:20:17.720Z,17.39
2022-10-10T12:21:17.650Z,17.40
2022-10-10T12:22:18.891Z,17.43
2022-10-10T12:23:17.755Z,17.45
2022-10-10T12:24:17.687Z,17.47
2022-10-10T12:25:17.685Z,17.47
2022-10-10T12:26:17.643Z,17.49
2022-10-10T12:27:17.779Z,17.51
2022-10-10T12:28:17.749Z,17.49
2022-10-10T12:29:17.616Z,17.51
2022-10-10T12:30:17.644Z,17.49
2022-10-10T12:31:17.545Z,17.51
2022-10-10T12:32:17.612Z,17.53
2022-10-10T12:33:17.630Z,17.53
2022-10-10T12:34:17.596Z,17.51
2022-10-10T12:35:17.537Z,17.51
2022-10-10T12:36:17.523Z,17.49
2022-10-10T12:37:17.600Z,17.51
2022-10-10T12:38:17.681Z,17.54
2022-10-10T12:39:17.461Z,17.60
2022-10-10T12:40:17.461Z,17.62
2022-10-10T12:41:17.378Z,17.68
2022-10-10T12:42:17.390Z,17.71
2022-10-10T12:43:17.441Z,17.77
2022-10-10T12:44:17.477Z,17.81
2022-10-10T12:45:17.338Z,17.87
2022-10-10T12:46:17.651Z,17.92
2022-10-10T12:47:17.930Z,17.96
2022-10-10T12:48:17.358Z,17.99
2022-10-10T12:49:17.639Z,18.05
2022-10-10T12:50:17.478Z,18.10
2022-10-10T12:51:17.399Z,18.17
2022-10-10T12:52:17.420Z,18.19
2022-10-10T12:53:17.411Z,18.19
2022-10-10T12:54:17.407Z,18.19
2022-10-10T12:55:17.308Z,18.16
2022-10-10T12:56:17.218Z,18.13
2022-10-10T12:57:17.421Z,18.13
2022-10-10T12:58:26.218Z,18.11
2022-10-10T12:59:18.311Z,18.11
2022-10-10T13:00:17.216Z,18.11
2022-10-10T13:01:17.152Z,18.10
2022-10-10T13:02:17.096Z,18.07
2022-10-10T13:03:17.101Z,18.04
2022-10-10T13:04:17.086Z,18.04